Alexandria, NE (68303)

5:37 PM CDT on July 06, 2015 (GMT -0500)
Crystal Springs Campground | | Change Station
CLOSE
Current Station
Personal Weather Station
Location: Fairbury, NE
Elevation: 1424 ft
Nearby Weather Stations

Elev 1424 ft 40.13 °N, 97.21 °W | Updated 4 seconds ago

Overcast
Overcast
71.7 °F
Feels Like 71.7 °F
N
10.0
Wind Variable Wind from NNE
Gusts 21.0 mph

Today
High -- | Low -- °F
--% Chance of Precip.
Yesterday
High -- | Low -- °F
Precip. -- in
6:06 AM 9:02 PM
Waning Gibbous, 71% visible
Pressure 29.96 in
Visibility 10.0 miles
Clouds Scattered Clouds 2400 ft
Overcast 3000 ft
Dew Point 68 °F
Humidity 87%
Rainfall 1.01 in
Snow Depth Not available.
UV 2 out of 12
Pollen 2.40 out of 12
Air Quality Not available.
Flu Activity Not available.
METAR KHJH 062215Z AUTO 02012G16KT 10SM SCT024 OVC030 23/18 A2996 RMK AO2 LTG DSNT SE T02300180

More Conditions Fewer Conditions

Pressure 29.96 in
Visibility 10.0 miles
Clouds Scattered Clouds 2400 ft
Overcast 3000 ft
Dew Point 68 °F
Humidity 87%
Rainfall 1.01 in
Snow Depth Not available.
UV 2 out of 12
Pollen 2.40 out of 12
Air Quality Not available.
Flu Activity Not available.
METAR KHJH 062215Z AUTO 02012G16KT 10SM SCT024 OVC030 23/18 A2996 RMK AO2 LTG DSNT SE T02300180

More Conditions Fewer Conditions

Nowcast | as of 4:14 PM CDT on July 6, 2015

An area of smoke behind a cold front is moving south across the area. This smoke originated from fires in Canada. Expect visibility of generally 3 to 6 miles for a few miles as the smoke moves south...with some locations briefly dropping below 3 miles visibility. The smoke will clear from north to south and should clear out before 10 PM for most locations.

×

10-Day Weather Forecast

×

Almanac

Astronomy

Jul. 06, 2015 Rise Set
Actual Time
Civil Twilight
Nautical Twilight
Astronomical Twilight
Moon
Length of Visible Light
Length of Day
Tomorrow will be .
, % of the Moon is Illuminated

Today's Extremes

State Highs State Lows

Community

WunderPhotos

Upload Photos

1,835,666 photos uploaded!

WunderBlogs® & News

Nearby

Air Quality

  Air Quality AQ Index Pollutant
Not available.

Snow Depth

Station Depth Elevation

Earthquake Activity

City Distance Mag. Time & Date
Minimum magnitude displayed is 2.5.

Coastal Water Temperatures

Place Temperature

Stations

Nearby Weather Stations

Station Location Temp. Windchill Dew Point Humidity Wind Precip. Elev Updated Type